NMSU Main Campus

2021-07-24 21:35:00

  • imperial
Date Time Air Temperature Relative Humidity Dewpoint Windchill Heat Index Wind Speed Wind Dir. Rain Solar Radiation
2m 2m 3m 3m
US/Mountain F % F F F MPH deg in MJ/m^2
max avg avg
2021-07-23 21:45:00 73.0 70.7 62.9 73.0 73.0 7.1 10.1 7.0 319.9 310.5 0.00 0.0000000
2021-07-23 21:50:00 72.6 67.7 61.3 72.6 72.6 10.1 10.1 5.4 312.9 317.8 0.00 0.0000000
2021-07-23 21:55:00 72.3 67.0 60.7 72.3 72.3 8.3 11.0 8.2 33.2 328.2 0.00 0.0000000
2021-07-23 22:00:00 72.1 68.2 61.0 72.1 72.1 7.6 12.1 8.7 340.5 324.6 0.00 0.0000000
2021-07-23 22:05:00 71.2 69.8 60.9 71.2 71.2 6.9 12.1 8.1 0.0 333.3 0.00 0.0000000
2021-07-23 22:10:00 70.6 71.6 61.0 70.6 70.6 4.9 12.1 6.8 327.8 330.4 0.00 0.0000000
2021-07-23 22:15:00 70.3 73.3 61.4 70.3 70.3 8.3 12.1 8.2 327.6 326.7 0.00 0.0000000
2021-07-23 22:20:00 69.9 74.2 61.3 69.9 69.9 10.8 11.0 7.6 337.4 327.5 0.00 0.0000000
2021-07-23 22:25:00 70.0 74.6 61.5 70.0 70.0 4.0 11.3 7.5 266.5 336.0 0.00 0.0000000
2021-07-23 22:30:00 69.6 73.8 60.9 69.6 69.6 8.5 9.0 5.7 295.9 318.9 0.00 0.0000000
2021-07-23 22:35:00 69.5 72.5 60.3 69.5 69.5 8.3 8.8 6.0 333.7 340.2 0.00 0.0000000
2021-07-23 22:40:00 69.8 72.3 60.5 69.8 69.8 5.5 8.0 5.5 309.8 336.9 0.00 0.0000000
2021-07-23 22:45:00 69.6 72.3 60.3 69.6 69.6 5.1 7.1 5.0 282.7 329.0 0.00 0.0000000
2021-07-23 22:50:00 69.4 70.7 59.5 69.4 69.4 7.6 9.0 6.6 2.1 334.3 0.00 0.0000000
2021-07-23 22:55:00 69.4 71.2 59.6 69.4 69.4 6.3 9.0 5.9 334.1 338.0 0.00 0.0000000
2021-07-23 23:00:00 69.5 70.9 59.7 69.5 69.5 5.5 9.4 6.0 333.9 336.3 0.00 0.0000000
2021-07-23 23:05:00 69.1 70.1 59.0 69.1 69.1 8.3 10.8 6.1 0.2 328.5 0.00 0.0000000
2021-07-23 23:10:00 69.1 70.6 59.2 69.1 69.1 6.9 11.0 7.2 1.7 330.7 0.00 0.0000000
2021-07-23 23:15:00 69.2 70.4 59.2 69.2 69.2 4.4 8.1 4.6 23.2 351.6 0.00 0.0000000
2021-07-23 23:20:00 69.1 71.6 59.5 69.1 69.1 5.8 7.1 4.9 319.8 345.6 0.00 0.0000000
2021-07-23 23:25:00 68.8 72.0 59.4 68.8 68.8 7.2 8.8 5.6 328.6 332.1 0.00 0.0000000
2021-07-23 23:30:00 68.8 72.2 59.5 68.8 68.8 4.0 10.3 6.8 308.1 334.9 0.00 0.0000000
2021-07-23 23:35:00 68.7 72.1 59.4 68.7 68.7 7.1 8.7 5.7 321.7 326.9 0.00 0.0000000
2021-07-23 23:40:00 68.6 73.2 59.6 68.6 68.6 5.5 7.2 5.1 331.3 328.9 0.00 0.0000000
2021-07-23 23:45:00 68.5 73.4 59.7 68.5 68.5 5.6 9.6 6.0 24.2 347.7 0.00 0.0000000
2021-07-23 23:50:00 68.4 73.7 59.7 68.4 68.4 5.1 9.2 6.0 0.0 333.0 0.00 0.0000000
2021-07-23 23:55:00 68.6 74.7 60.2 68.6 68.6 3.1 6.0 4.2 326.2 337.9 0.00 0.0000000
2021-07-24 00:00:00 68.3 75.2 60.2 68.3 68.3 3.8 4.6 3.1 329.4 333.0 0.00 0.0000000
2021-07-24 00:05:00 68.1 74.9 59.8 68.1 68.1 3.7 4.9 3.1 3.2 346.8 0.00 0.0000000
2021-07-24 00:10:00 68.2 75.6 60.2 68.2 68.2 3.7 4.4 3.3 333.5 337.7 0.00 0.0000000
2021-07-24 00:15:00 68.2 74.9 59.9 68.2 68.2 3.5 5.1 3.2 6.3 333.8 0.00 0.0000000
2021-07-24 00:20:00 68.4 74.1 59.8 68.4 68.4 2.2 5.5 3.4 343.0 350.5 0.00 0.0000000
2021-07-24 00:25:00 68.5 74.1 59.9 68.5 68.5 4.6 6.3 4.3 341.3 337.2 0.00 0.0000000
2021-07-24 00:30:00 68.5 73.4 59.6 68.5 68.5 2.2 5.6 3.3 7.9 333.6 0.00 0.0000000
2021-07-24 00:35:00 68.5 73.4 59.6 68.5 68.5 4.2 5.1 3.8 341.2 341.0 0.00 0.0000000
2021-07-24 00:40:00 68.2 73.3 59.3 68.2 68.2 4.2 6.0 4.2 22.9 340.8 0.00 0.0000000
2021-07-24 00:45:00 68.3 73.2 59.4 68.3 68.3 3.0 6.5 4.6 317.7 341.8 0.00 0.0000000
2021-07-24 00:50:00 68.5 73.0 59.5 68.5 68.5 4.6 4.7 3.1 0.8 350.9 0.00 0.0000000
2021-07-24 00:55:00 68.0 73.4 59.2 68.0 68.0 4.2 4.2 3.2 8.7 346.1 0.00 0.0000000
2021-07-24 01:00:00 68.0 72.5 58.9 68.0 68.0 3.8 5.5 3.6 331.7 345.5 0.00 0.0000000
2021-07-24 01:05:00 68.2 72.8 59.1 68.2 68.2 3.1 3.7 2.5 0.0 4.5 0.00 0.0000000
2021-07-24 01:10:00 68.2 72.3 58.9 68.2 68.2 3.7 4.0 2.3 27.9 354.6 0.00 0.0000000
2021-07-24 01:15:00 68.1 71.9 58.7 68.1 68.1 2.1 3.0 2.4 40.3 4.5 0.00 0.0000000
2021-07-24 01:20:00 68.0 72.5 58.9 68.0 68.0 1.9 3.8 2.2 301.1 355.7 0.00 0.0000000
2021-07-24 01:25:00 68.2 71.4 58.6 68.2 68.2 2.6 5.6 3.3 12.3 19.3 0.00 0.0000000
2021-07-24 01:30:00 68.3 71.4 58.7 68.3 68.3 3.0 3.7 2.2 34.4 6.0 0.00 0.0000000
2021-07-24 01:35:00 68.2 72.2 58.9 68.2 68.2 1.5 4.4 2.7 342.8 344.0 0.00 0.0000000
2021-07-24 01:40:00 67.6 73.8 59.0 67.6 67.6 1.3 2.2 1.1 6.9 348.4 0.00 0.0000000
2021-07-24 01:45:00 67.6 73.9 58.9 67.6 67.6 0.0 1.9 1.0 317.0 312.4 0.00 0.0000000
2021-07-24 01:50:00 67.4 76.8 59.8 67.4 67.4 1.7 1.9 0.6 329.9 1.3 0.00 0.0000000
2021-07-24 01:55:00 67.1 77.0 59.6 67.1 67.1 0.0 1.7 1.0 313.8 326.5 0.00 0.0000000
2021-07-24 02:00:00 66.9 76.1 59.1 66.9 66.9 2.1 2.6 1.3 309.5 316.1 0.00 0.0000000
2021-07-24 02:05:00 67.1 75.3 59.1 67.1 67.1 1.7 3.5 2.1 0.0 346.2 0.00 0.0000000
2021-07-24 02:10:00 67.3 74.3 58.8 67.3 67.3 2.6 3.0 2.1 339.5 340.6 0.00 0.0000000
2021-07-24 02:15:00 67.1 75.5 59.1 67.1 67.1 2.1 3.3 2.2 326.7 326.0 0.00 0.0000000
2021-07-24 02:20:00 67.1 75.4 59.0 67.1 67.1 0.0 2.4 0.9 330.6 349.9 0.00 0.0000000
2021-07-24 02:25:00 67.1 75.4 59.1 67.1 67.1 0.0 0.8 0.0 335.9 288.2 0.00 0.0000000
2021-07-24 02:30:00 67.0 77.2 59.6 67.0 67.0 2.8 3.8 2.6 312.6 324.2 0.00 0.0000000
2021-07-24 02:35:00 66.5 77.3 59.1 66.5 66.5 2.8 3.1 2.3 336.5 322.0 0.00 0.0000000
2021-07-24 02:40:00 66.5 77.4 59.3 66.5 66.5 0.0 2.2 0.3 281.1 337.8 0.00 0.0000000
2021-07-24 02:45:00 66.5 77.8 59.4 66.5 66.5 0.0 0.0 0.0 287.8 0.0 0.00 0.0000000
2021-07-24 02:50:00 66.7 77.0 59.2 66.7 66.7 1.5 1.5 0.6 272.2 270.5 0.00 0.0000000
2021-07-24 02:55:00 66.7 77.0 59.2 66.7 66.7 0.0 1.5 0.6 299.7 284.5 0.00 0.0000000
2021-07-24 03:00:00 66.5 78.4 59.6 66.5 66.5 0.0 0.8 0.0 289.1 300.7 0.00 0.0000000
2021-07-24 03:05:00 66.1 78.3 59.2 66.1 66.1 1.7 1.7 0.9 283.3 285.9 0.00 0.0000000
2021-07-24 03:10:00 66.0 79.8 59.6 66.0 66.0 0.0 2.2 1.2 339.7 296.1 0.00 0.0000000
2021-07-24 03:15:00 66.1 79.2 59.4 66.1 66.1 0.0 1.7 0.3 313.1 331.1 0.00 0.0000000
2021-07-24 03:20:00 66.2 79.2 59.6 66.2 66.2 0.0 0.0 0.0 266.7 0.0 0.00 0.0000000
2021-07-24 03:25:00 66.0 79.0 59.3 66.0 66.0 0.0 0.0 0.0 325.7 0.0 0.00 0.0000000
2021-07-24 03:30:00 65.9 79.9 59.5 65.9 65.9 0.0 1.7 0.6 282.8 327.2 0.00 0.0000000
2021-07-24 03:35:00 66.0 79.6 59.5 66.0 66.0 0.0 0.0 0.0 267.3 0.0 0.00 0.0000000
2021-07-24 03:40:00 66.0 80.4 59.8 66.0 66.0 1.5 1.5 0.2 296.3 291.0 0.00 0.0000000
2021-07-24 03:45:00 65.8 81.9 60.1 65.8 65.8 1.5 2.2 1.9 315.0 301.2 0.00 0.0000000
2021-07-24 03:50:00 65.4 81.1 59.5 65.4 65.4 1.5 2.1 1.6 22.5 328.4 0.00 0.0000000
2021-07-24 03:55:00 65.9 79.8 59.5 65.9 65.9 1.0 3.0 1.4 323.2 0.2 0.00 0.0000000
2021-07-24 04:00:00 65.9 80.1 59.6 65.9 65.9 0.0 1.5 0.4 1.0 355.6 0.00 0.0000000
2021-07-24 04:05:00 66.1 79.9 59.7 66.1 66.1 1.7 2.1 1.2 325.1 2.1 0.00 0.0000000
2021-07-24 04:10:00 66.1 79.9 59.7 66.1 66.1 1.2 2.1 1.1 20.7 350.2 0.00 0.0000000
2021-07-24 04:15:00 65.9 80.2 59.6 65.9 65.9 0.0 1.2 0.4 343.2 348.4 0.00 0.0000000
2021-07-24 04:20:00 66.1 80.2 59.8 66.1 66.1 1.5 2.2 1.7 14.2 351.8 0.00 0.0000000
2021-07-24 04:25:00 66.0 80.2 59.7 66.0 66.0 0.8 1.7 0.7 332.3 355.6 0.00 0.0000000
2021-07-24 04:30:00 65.8 80.5 59.6 65.8 65.8 0.0 1.9 0.7 329.9 347.4 0.00 0.0000000
2021-07-24 04:35:00 65.8 81.0 59.8 65.8 65.8 0.0 0.0 0.0 340.8 0.0 0.00 0.0000000
2021-07-24 04:40:00 65.6 81.1 59.7 65.6 65.6 0.0 0.0 0.0 342.0 0.0 0.00 0.0000000
2021-07-24 04:45:00 65.8 81.3 59.9 65.8 65.8 0.0 0.0 0.0 309.8 0.0 0.00 0.0000000
2021-07-24 04:50:00 65.9 80.9 59.9 65.9 65.9 0.0 0.0 0.0 259.2 0.0 0.00 0.0000000
2021-07-24 04:55:00 66.1 80.2 59.8 66.1 66.1 1.0 1.5 0.3 275.1 280.1 0.00 0.0000000
2021-07-24 05:00:00 66.1 80.4 59.9 66.1 66.1 0.0 1.7 0.8 230.4 264.1 0.00 0.0000000
2021-07-24 05:05:00 66.0 80.5 59.8 66.0 66.0 0.0 1.5 0.4 261.6 259.9 0.00 0.0000000
2021-07-24 05:10:00 66.1 80.1 59.8 66.1 66.1 0.0 1.3 0.3 280.2 254.2 0.00 0.0000000
2021-07-24 05:15:00 66.1 82.7 60.6 66.1 66.1 0.0 1.5 0.2 216.2 239.6 0.00 0.0000000
2021-07-24 05:20:00 65.9 83.9 60.9 65.9 65.9 0.0 1.0 0.2 289.1 274.7 0.00 0.0000000
2021-07-24 05:25:00 65.8 84.7 61.1 65.8 65.8 0.0 0.8 0.1 289.5 277.8 0.00 0.0000000
2021-07-24 05:30:00 65.4 86.2 61.2 65.4 65.4 1.2 3.0 1.8 278.2 298.2 0.00 0.0000000
2021-07-24 05:35:00 65.1 86.8 61.1 65.1 65.1 0.0 1.0 0.1 295.5 297.1 0.00 0.0000000
2021-07-24 05:40:00 65.1 87.7 61.3 65.1 65.1 1.7 2.8 1.9 303.8 307.4 0.00 0.0000000
2021-07-24 05:45:00 65.1 87.3 61.2 65.1 65.1 1.9 2.2 0.6 282.9 287.8 0.00 0.0000000
2021-07-24 05:50:00 65.2 86.2 61.0 65.2 65.2 0.0 2.4 1.2 291.8 283.0 0.00 0.0000000
2021-07-24 05:55:00 65.3 85.2 60.8 65.3 65.3 0.0 1.5 0.2 289.9 322.9 0.00 0.0000000
2021-07-24 06:00:00 65.2 85.5 60.7 65.2 65.2 1.7 2.4 1.3 272.0 292.5 0.00 0.0000382
2021-07-24 06:05:00 65.1 85.5 60.7 65.1 65.1 1.7 3.0 2.2 315.9 301.7 0.00 0.0001206
2021-07-24 06:10:00 64.9 84.8 60.2 64.9 64.9 1.2 1.9 0.7 8.5 316.4 0.00 0.0003134
2021-07-24 06:15:00 65.1 84.2 60.2 65.1 65.1 2.4 2.4 1.7 280.4 305.8 0.00 0.0006670
2021-07-24 06:20:00 65.2 83.4 60.0 65.2 65.2 1.7 2.4 1.7 289.1 280.4 0.00 0.0007796
2021-07-24 06:25:00 65.5 84.0 60.5 65.5 65.5 0.0 1.7 0.4 282.6 276.4 0.00 0.0014044
2021-07-24 06:30:00 65.4 84.9 60.7 65.4 65.4 0.0 1.0 0.1 316.2 310.0 0.00 0.0025857
2021-07-24 06:35:00 65.3 85.2 60.8 65.3 65.3 0.0 2.2 0.9 266.8 306.7 0.00 0.0041367
2021-07-24 06:40:00 65.3 84.6 60.5 65.3 65.3 0.0 1.0 0.1 306.5 323.6 0.00 0.0059048
2021-07-24 06:45:00 65.8 83.9 60.7 65.8 65.8 1.5 1.9 1.0 3.0 342.3 0.00 0.0077953
2021-07-24 06:50:00 65.9 83.2 60.6 65.9 65.9 1.5 2.6 1.3 328.1 346.4 0.00 0.0098807
2021-07-24 06:55:00 66.3 82.4 60.8 66.3 66.3 1.2 2.8 1.8 10.2 346.9 0.00 0.0119520
2021-07-24 07:00:00 66.6 82.3 61.0 66.6 66.6 0.0 1.2 0.2 62.7 18.5 0.00 0.0140575
2021-07-24 07:05:00 66.8 81.8 61.1 66.8 66.8 0.0 1.9 0.4 131.6 104.3 0.00 0.0161628
2021-07-24 07:10:00 67.2 82.1 61.6 67.2 67.2 0.8 2.1 0.6 272.1 269.1 0.00 0.0182923
2021-07-24 07:15:00 67.1 81.7 61.4 67.1 67.1 1.0 1.9 0.9 277.2 275.7 0.00 0.0202590
2021-07-24 07:20:00 67.3 80.4 61.0 67.3 67.3 0.0 1.2 0.3 229.5 230.6 0.00 0.0222337
2021-07-24 07:25:00 67.4 79.4 60.8 67.4 67.4 0.0 0.8 0.0 297.7 245.2 0.00 0.0231719
2021-07-24 07:30:00 67.8 82.2 62.2 67.8 67.8 1.7 2.2 0.8 197.3 189.7 0.00 0.0313001
2021-07-24 07:35:00 67.5 83.2 62.2 67.5 67.5 2.2 3.5 2.3 181.4 163.8 0.00 0.0357258
2021-07-24 07:40:00 67.3 83.9 62.2 67.3 67.3 0.0 3.3 2.0 111.4 158.2 0.00 0.0402522
2021-07-24 07:45:00 67.6 84.9 62.9 67.6 67.6 0.8 2.8 1.4 142.2 162.6 0.00 0.0421565
2021-07-24 07:50:00 67.9 81.5 62.1 67.9 67.9 2.8 3.3 2.2 140.2 140.9 0.00 0.0627487
2021-07-24 07:55:00 68.5 80.7 62.4 68.5 68.5 0.0 2.2 1.1 196.4 145.3 0.00 0.0741638
2021-07-24 08:00:00 68.8 80.2 62.4 68.8 68.8 1.3 3.5 2.0 212.0 192.8 0.00 0.0819961
2021-07-24 08:05:00 69.3 80.7 63.1 69.3 69.3 2.1 3.8 1.9 130.1 185.5 0.00 0.0804914
2021-07-24 08:10:00 69.9 78.5 62.9 69.9 69.9 1.5 2.4 1.0 113.5 138.3 0.00 0.0793261
2021-07-24 08:15:00 70.1 77.3 62.6 70.1 70.1 3.1 3.1 1.8 158.4 147.3 0.00 0.0953993
2021-07-24 08:20:00 71.0 77.8 63.7 71.0 71.0 1.7 2.6 1.4 76.3 144.4 0.00 0.1075396
2021-07-24 08:25:00 71.2 76.3 63.3 71.2 71.2 1.5 3.0 1.4 224.6 191.4 0.00 0.1094475
2021-07-24 08:30:00 71.1 76.8 63.4 71.1 71.1 1.2 2.2 1.5 222.3 201.2 0.00 0.0888762
2021-07-24 08:35:00 70.6 76.6 62.9 70.6 70.6 2.2 3.5 2.5 227.6 226.4 0.00 0.0863789
2021-07-24 08:40:00 71.4 74.7 63.0 71.4 71.4 1.2 4.4 2.2 184.7 193.2 0.00 0.1297945
2021-07-24 08:45:00 72.3 71.8 62.6 72.3 72.3 2.1 4.2 1.3 173.2 166.4 0.00 0.1401307
2021-07-24 08:50:00 72.3 73.3 63.3 72.3 72.3 3.1 3.8 2.9 173.5 169.3 0.00 0.1469143
2021-07-24 08:55:00 72.7 71.9 63.1 72.7 72.7 3.3 4.6 2.6 188.5 188.7 0.00 0.1522608
2021-07-24 09:00:00 73.2 68.1 62.1 73.2 73.2 3.7 4.4 2.3 132.7 178.8 0.00 0.1569404
2021-07-24 09:05:00 73.1 70.0 62.8 73.1 73.1 1.9 4.6 2.8 135.7 138.2 0.00 0.1404836
2021-07-24 09:10:00 73.8 67.2 62.3 73.8 73.8 2.1 3.8 1.9 119.2 164.4 0.00 0.1396526
2021-07-24 09:15:00 74.4 62.6 60.9 74.4 74.4 3.0 4.9 3.3 160.3 112.3 0.00 0.1819450
2021-07-24 09:20:00 75.3 60.3 60.6 75.3 75.3 0.0 3.5 2.2 175.8 139.7 0.00 0.1882032
2021-07-24 09:25:00 75.9 62.1 62.0 75.9 75.9 0.0 3.5 1.5 300.0 153.6 0.00 0.1852494
2021-07-24 09:30:00 77.0 53.7 59.0 77.0 77.0 1.9 2.8 1.4 123.6 155.6 0.00 0.1948662
2021-07-24 09:35:00 77.6 57.0 61.2 77.6 77.6 3.0 4.4 2.0 236.0 134.9 0.00 0.2033226
2021-07-24 09:40:00 76.7 57.2 60.4 76.7 76.7 0.8 5.1 2.6 81.2 205.2 0.00 0.1813631
2021-07-24 09:45:00 77.4 53.3 59.1 77.4 77.4 3.1 4.4 2.1 165.7 142.2 0.00 0.1710025
2021-07-24 09:50:00 76.7 56.1 59.9 76.7 76.7 0.0 4.4 2.6 189.1 164.5 0.00 0.1783926
2021-07-24 09:55:00 76.9 60.2 62.0 76.9 76.9 2.4 4.7 2.9 217.7 237.6 0.00 0.2033602
2021-07-24 10:00:00 77.5 54.2 59.7 77.5 77.5 1.5 4.0 2.9 159.7 213.8 0.00 0.2458303
2021-07-24 10:05:00 78.6 52.7 59.9 78.6 78.6 2.1 4.0 2.4 174.3 177.2 0.00 0.2535745
2021-07-24 10:10:00 79.3 49.0 58.5 79.3 79.3 4.9 4.9 1.9 177.1 206.4 0.00 0.2488361
2021-07-24 10:15:00 79.0 50.0 58.8 79.0 79.0 4.6 5.6 2.0 219.9 210.2 0.00 0.1751639
2021-07-24 10:20:00 78.4 51.2 58.9 78.4 78.4 3.1 6.0 3.7 205.7 220.6 0.00 0.1791710
2021-07-24 10:25:00 78.3 54.2 60.4 78.3 78.3 3.0 4.9 3.3 235.7 194.5 0.00 0.1615714
2021-07-24 10:30:00 77.8 53.8 59.8 77.8 77.8 4.2 4.7 3.2 220.6 219.6 0.00 0.1512403
2021-07-24 10:35:00 78.4 52.2 59.5 78.4 78.4 3.5 6.2 3.2 166.6 182.3 0.00 0.1187133
2021-07-24 10:40:00 78.1 53.3 59.8 78.1 78.1 1.2 5.3 2.6 158.9 203.4 0.00 0.1233282
2021-07-24 10:45:00 78.0 55.0 60.5 78.0 78.0 0.0 4.6 2.2 143.5 182.3 0.00 0.1601427
2021-07-24 10:50:00 78.3 55.2 60.9 78.3 78.3 0.0 4.9 2.3 168.4 112.6 0.00 0.1147463
2021-07-24 10:55:00 79.0 53.3 60.5 79.0 79.0 3.1 4.0 1.6 181.7 173.0 0.00 0.0859358
2021-07-24 11:00:00 78.9 52.1 59.8 78.9 78.9 0.0 2.6 1.5 259.9 151.6 0.00 0.1284040
2021-07-24 11:05:00 79.1 53.4 60.7 79.1 79.1 2.8 4.2 1.5 161.6 159.1 0.00 0.1409215
2021-07-24 11:10:00 79.4 52.0 60.3 79.4 79.4 2.4 4.9 2.1 154.3 168.0 0.00 0.1417259
2021-07-24 11:15:00 79.4 49.6 58.9 79.4 79.4 0.0 2.8 1.4 162.2 190.9 0.00 0.1288054
2021-07-24 11:20:00 79.8 51.0 60.1 79.8 79.8 2.4 2.8 0.4 185.9 182.6 0.00 0.1234537
2021-07-24 11:25:00 80.7 49.1 59.8 80.7 81.3 0.0 2.6 1.1 93.3 186.6 0.00 0.1210955
2021-07-24 11:30:00 80.2 49.2 59.4 80.2 80.9 2.1 4.9 2.3 180.8 136.7 0.00 0.1229187
2021-07-24 11:35:00 80.1 49.1 59.3 80.1 80.8 2.2 4.7 2.2 115.9 149.6 0.00 0.1188033
2021-07-24 11:40:00 79.9 49.6 59.3 79.9 79.9 1.7 5.1 2.6 152.8 141.4 0.00 0.1140931
2021-07-24 11:45:00 80.0 52.5 61.1 80.0 81.0 1.3 6.9 2.3 107.1 129.6 0.00 0.1131509
2021-07-24 11:50:00 80.0 50.5 60.0 80.0 80.9 2.6 5.3 3.1 111.3 128.3 0.00 0.1120297
2021-07-24 11:55:00 79.9 50.0 59.6 79.9 79.9 5.5 5.5 3.0 110.9 143.3 0.00 0.1123527
2021-07-24 12:00:00 80.5 51.1 60.8 80.5 81.4 4.4 6.0 2.6 115.2 127.9 0.00 0.1108684
2021-07-24 12:05:00 80.1 50.4 60.0 80.1 80.9 4.9 7.4 4.6 108.3 110.7 0.00 0.1131789
2021-07-24 12:10:00 80.1 49.9 59.7 80.1 80.9 4.4 8.0 5.3 109.9 103.0 0.00 0.1161959
2021-07-24 12:15:00 80.7 48.3 59.4 80.7 81.3 2.6 4.6 2.9 77.6 123.5 0.00 0.1251992
2021-07-24 12:20:00 81.1 48.7 60.0 81.1 81.7 2.4 4.2 2.6 122.2 130.9 0.00 0.1530727
2021-07-24 12:25:00 81.5 48.9 60.4 81.5 82.1 3.5 4.6 3.2 108.6 127.5 0.00 0.1430433
2021-07-24 12:30:00 81.3 49.6 60.6 81.3 81.9 2.2 7.2 3.6 180.0 171.6 0.00 0.1208081
2021-07-24 12:35:00 81.0 49.5 60.3 81.0 81.7 3.3 4.2 3.3 253.1 207.9 0.00 0.1255031
2021-07-24 12:40:00 81.3 50.4 61.1 81.3 82.1 4.6 6.2 3.9 199.7 207.6 0.00 0.1428010
2021-07-24 12:45:00 81.3 49.9 60.9 81.3 82.1 4.7 5.6 3.7 216.7 192.6 0.00 0.1605173
2021-07-24 12:50:00 80.9 52.2 61.8 80.9 81.9 6.5 6.5 4.7 212.5 213.6 0.00 0.1603764
2021-07-24 12:55:00 81.0 53.1 62.3 81.0 82.1 3.0 7.1 4.5 237.9 232.7 0.00 0.1743018
2021-07-24 13:00:00 80.8 52.3 61.7 80.8 81.8 3.3 5.1 3.8 313.4 247.0 0.00 0.1776012
2021-07-24 13:05:00 81.4 50.5 61.3 81.4 82.2 2.6 4.4 2.7 338.3 256.2 0.00 0.1923172
2021-07-24 13:10:00 82.2 50.0 61.8 82.2 83.0 2.2 3.8 2.3 178.8 154.7 0.00 0.2207313
2021-07-24 13:15:00 82.0 48.4 60.6 82.0 82.5 3.0 4.9 2.6 212.5 142.5 0.00 0.2026060
2021-07-24 13:20:00 82.5 47.7 60.6 82.5 82.9 5.3 5.3 3.7 221.4 195.9 0.00 0.1950856
2021-07-24 13:25:00 82.2 50.7 62.2 82.2 83.1 3.8 7.4 4.6 225.2 214.8 0.00 0.1865232
2021-07-24 13:30:00 81.9 47.4 60.0 81.9 82.3 4.7 5.8 4.1 246.8 256.5 0.00 0.1742857
2021-07-24 13:35:00 82.3 45.3 59.0 82.3 82.4 3.8 6.0 4.0 230.0 211.1 0.00 0.1541742
2021-07-24 13:40:00 82.6 46.9 60.2 82.6 82.9 6.5 6.9 4.3 193.3 162.1 0.00 0.1964891
2021-07-24 13:45:00 83.1 46.4 60.4 83.1 83.4 3.3 6.3 4.3 212.3 204.1 0.00 0.2354895
2021-07-24 13:50:00 84.0 43.9 59.7 84.0 83.9 2.8 5.6 3.9 129.0 210.2 0.00 0.2525759
2021-07-24 13:55:00 84.7 43.9 60.3 84.7 84.7 2.8 5.3 3.5 128.4 179.6 0.00 0.2839110
2021-07-24 14:00:00 84.2 44.0 60.0 84.2 84.2 2.6 7.4 4.5 106.3 207.9 0.00 0.3105665
2021-07-24 14:05:00 85.3 41.7 59.3 85.3 84.9 6.0 6.0 4.4 222.5 191.6 0.00 0.3035585
2021-07-24 14:10:00 85.3 40.7 58.7 85.3 84.8 4.4 8.0 5.1 258.4 228.2 0.00 0.3031374
2021-07-24 14:15:00 85.6 41.7 59.7 85.6 85.3 2.6 8.3 4.4 212.5 230.1 0.00 0.2973413
2021-07-24 14:20:00 85.4 39.7 58.1 85.4 85.4 5.6 8.0 5.1 129.3 180.1 0.00 0.2609388
2021-07-24 14:25:00 85.5 41.2 59.3 85.5 85.1 7.2 8.0 4.1 179.3 142.7 0.00 0.2627030
2021-07-24 14:30:00 86.2 38.8 58.2 86.2 86.2 3.5 6.7 4.0 92.1 164.9 0.00 0.2321499
2021-07-24 14:35:00 85.8 41.1 59.4 85.8 85.4 4.7 7.6 3.9 98.0 134.1 0.00 0.2113853
2021-07-24 14:40:00 84.7 41.7 58.9 84.7 84.3 6.0 10.1 6.1 137.6 125.0 0.00 0.1961403
2021-07-24 14:45:00 83.9 43.2 59.2 83.9 83.8 1.9 7.6 4.9 9.9 102.5 0.00 0.1846847
2021-07-24 14:50:00 85.3 41.6 59.4 85.3 85.0 4.9 6.7 3.8 128.3 138.8 0.00 0.1608552
2021-07-24 14:55:00 84.8 43.2 60.0 84.8 84.7 2.2 9.4 4.6 124.7 120.1 0.00 0.1792012
2021-07-24 15:00:00 85.6 40.6 58.9 85.6 85.1 1.9 5.8 3.2 237.3 91.7 0.00 0.2129114
2021-07-24 15:05:00 85.9 39.0 58.1 85.9 85.9 2.6 7.6 3.9 131.7 125.5 0.00 0.2111510
2021-07-24 15:10:00 85.8 42.0 60.1 85.8 85.6 3.5 4.2 2.3 221.1 246.7 0.00 0.2032986
2021-07-24 15:15:00 86.8 36.4 57.0 86.8 86.8 3.7 8.5 4.9 139.5 194.6 0.00 0.2376275
2021-07-24 15:20:00 87.3 36.0 57.1 87.3 87.3 3.5 7.4 4.9 157.5 157.1 0.00 0.2708727
2021-07-24 15:25:00 87.9 36.5 58.0 87.9 87.9 4.2 7.8 4.1 190.1 150.9 0.00 0.2699593
2021-07-24 15:30:00 89.0 37.1 59.5 89.0 89.0 3.5 5.3 3.3 192.0 160.3 0.00 0.2615374
2021-07-24 15:35:00 88.5 35.1 57.5 88.5 88.5 2.4 7.8 4.7 114.7 136.2 0.00 0.2200127
2021-07-24 15:40:00 87.9 34.2 56.2 87.9 87.9 2.1 7.6 4.0 136.8 149.9 0.00 0.2202540
2021-07-24 15:45:00 87.6 36.0 57.3 87.6 87.6 5.1 8.5 4.0 134.4 140.3 0.00 0.1764772
2021-07-24 15:50:00 86.5 38.2 58.0 86.5 86.5 4.9 8.0 5.4 138.1 119.9 0.00 0.2056187
2021-07-24 15:55:00 86.7 36.8 57.2 86.7 86.7 4.6 8.7 4.8 95.0 115.8 0.00 0.1919832
2021-07-24 16:00:00 86.8 36.5 57.0 86.8 86.8 3.5 8.1 4.5 150.7 121.2 0.00 0.1199774
2021-07-24 16:05:00 88.1 35.1 57.1 88.1 88.1 4.9 5.3 3.9 108.7 129.4 0.00 0.2356241
2021-07-24 16:10:00 88.0 36.8 58.3 88.0 88.0 3.3 11.0 5.3 144.9 140.3 0.00 0.2423943
2021-07-24 16:15:00 87.8 33.6 55.6 87.8 87.8 3.7 6.7 3.7 131.2 147.6 0.00 0.1641299
2021-07-24 16:20:00 88.1 33.7 55.9 88.1 88.1 4.6 5.1 3.7 149.9 156.4 0.00 0.2443362
2021-07-24 16:25:00 88.5 33.8 56.4 88.5 88.5 4.2 5.5 3.4 131.6 125.1 0.00 0.2067864
2021-07-24 16:30:00 87.2 36.2 57.2 87.2 87.2 1.2 7.1 4.3 135.6 171.8 0.00 0.0606650
2021-07-24 16:35:00 86.8 36.8 57.3 86.8 86.8 2.1 4.9 3.2 10.2 164.0 0.00 0.0493505
2021-07-24 16:40:00 83.9 46.4 61.2 83.9 84.3 11.3 14.6 7.1 259.8 244.1 0.00 0.0421910
2021-07-24 16:45:00 81.6 49.5 60.9 81.6 82.2 11.2 14.9 9.1 228.4 258.6 0.00 0.0542102
2021-07-24 16:50:00 81.2 50.3 61.0 81.2 82.0 12.8 15.6 9.3 304.6 278.1 0.00 0.0744933
2021-07-24 16:55:00 81.5 50.1 61.1 81.5 82.3 10.6 12.4 8.6 313.8 290.8 0.00 0.1336735
2021-07-24 17:00:00 81.9 49.4 61.1 81.9 82.6 3.7 14.7 8.1 255.0 299.9 0.00 0.1763410
2021-07-24 17:05:00 82.4 49.8 61.8 82.4 83.1 7.6 16.4 9.4 251.8 288.7 0.00 0.1724798
2021-07-24 17:10:00 82.2 50.6 62.0 82.2 83.1 11.3 13.0 9.1 285.1 284.5 0.00 0.1467052
2021-07-24 17:15:00 81.6 51.4 62.0 81.6 82.6 5.1 13.0 8.2 306.8 263.9 0.00 0.0823023
2021-07-24 17:20:00 81.8 49.8 61.2 81.8 82.5 12.6 13.7 9.5 286.1 291.6 0.00 0.1396030
2021-07-24 17:25:00 80.7 52.0 61.4 80.7 81.6 11.5 14.7 12.1 297.7 292.8 0.00 0.1109541
2021-07-24 17:30:00 80.3 53.3 61.8 80.3 81.4 7.4 13.1 9.6 281.3 293.1 0.00 0.0808054
2021-07-24 17:35:00 80.6 53.0 61.8 80.6 81.6 7.1 11.7 6.9 305.9 269.2 0.00 0.0754954
2021-07-24 17:40:00 80.5 52.4 61.5 80.5 81.5 8.0 11.2 7.7 290.0 304.5 0.00 0.0718604
2021-07-24 17:45:00 80.2 53.7 61.9 80.2 81.3 5.8 12.8 7.9 278.8 292.7 0.00 0.0667523
2021-07-24 17:50:00 80.1 53.9 61.9 80.1 81.3 5.5 9.6 6.4 322.1 304.9 0.00 0.0695724
2021-07-24 17:55:00 79.6 53.8 61.4 79.6 79.6 5.3 10.5 7.3 281.1 311.2 0.00 0.0539014
2021-07-24 18:00:00 79.5 52.5 60.6 79.5 79.5 9.6 9.9 6.1 315.5 301.5 0.00 0.0425807
2021-07-24 18:05:00 79.3 53.7 61.0 79.3 79.3 4.9 10.5 7.0 314.7 328.4 0.00 0.0397318
2021-07-24 18:10:00 79.1 52.9 60.5 79.1 79.1 8.3 9.6 6.8 326.4 326.0 0.00 0.0375378
2021-07-24 18:15:00 79.1 53.1 60.6 79.1 79.1 5.8 8.1 6.2 326.0 328.2 0.00 0.0370787
2021-07-24 18:20:00 79.1 52.7 60.4 79.1 79.1 4.7 9.2 6.4 336.8 315.6 0.00 0.0369652
2021-07-24 18:25:00 79.0 53.7 60.7 79.0 79.0 6.0 8.3 5.6 337.5 327.8 0.00 0.0362522
2021-07-24 18:30:00 79.3 52.3 60.3 79.3 79.3 5.5 8.0 5.1 336.2 353.8 0.00 0.0352172
2021-07-24 18:35:00 79.2 52.4 60.3 79.2 79.2 4.0 7.2 4.4 14.9 334.3 0.00 0.0332519
2021-07-24 18:40:00 79.1 53.4 60.7 79.1 79.1 4.2 6.2 3.3 299.3 331.7 0.00 0.0311429
2021-07-24 18:45:00 79.0 54.7 61.3 79.0 79.0 3.1 8.0 4.9 320.1 348.3 0.00 0.0318064
2021-07-24 18:50:00 78.7 54.5 60.9 78.7 78.7 3.5 6.7 4.5 336.0 324.0 0.00 0.0278966
2021-07-24 18:55:00 78.9 55.5 61.6 78.9 78.9 3.5 7.1 4.6 331.2 347.1 0.00 0.0244942
2021-07-24 19:00:00 78.7 53.1 60.2 78.7 78.7 6.7 9.2 6.4 5.3 331.3 0.00 0.0213362
2021-07-24 19:05:00 78.9 52.9 60.3 78.9 78.9 3.7 8.0 4.8 0.4 346.5 0.00 0.0194304
2021-07-24 19:10:00 78.8 53.2 60.3 78.8 78.8 3.7 8.0 5.3 317.7 327.3 0.00 0.0185340
2021-07-24 19:15:00 78.5 52.3 59.6 78.5 78.5 6.5 7.1 5.3 329.9 330.4 0.00 0.0158710
2021-07-24 19:20:00 78.7 53.3 60.3 78.7 78.7 4.6 9.2 5.4 2.3 336.8 0.00 0.0141493
2021-07-24 19:25:00 78.5 53.1 60.0 78.5 78.5 4.4 6.7 4.2 321.2 329.2 0.00 0.0135977
2021-07-24 19:30:00 78.3 53.9 60.2 78.3 78.3 7.8 7.8 5.3 298.9 317.4 0.00 0.0129997
2021-07-24 19:35:00 78.0 54.0 60.0 78.0 78.0 6.7 8.5 6.5 259.1 299.4 0.00 0.0113843
2021-07-24 19:40:00 78.0 55.4 60.7 78.0 78.0 5.3 8.1 4.8 296.8 306.7 0.00 0.0096100
2021-07-24 19:45:00 77.8 56.9 61.3 77.8 77.8 3.5 8.7 5.7 292.2 300.5 0.00 0.0080025
2021-07-24 19:50:00 77.6 57.4 61.3 77.6 77.6 3.0 6.7 4.8 336.1 306.9 0.00 0.0063085
2021-07-24 19:55:00 77.5 55.9 60.6 77.5 77.5 3.3 6.2 4.1 320.9 322.2 0.00 0.0045463
2021-07-24 20:00:00 77.5 55.3 60.2 77.5 77.5 4.9 7.4 5.8 286.9 317.3 0.00 0.0029285
2021-07-24 20:05:00 77.2 55.6 60.1 77.2 77.2 3.3 7.6 5.2 306.4 316.8 0.00 0.0015717
2021-07-24 20:10:00 76.8 56.4 60.1 76.8 76.8 3.7 6.3 4.2 0.6 328.1 0.00 0.0007206
2021-07-24 20:15:00 76.9 55.9 59.9 76.9 76.9 2.6 5.3 3.5 327.7 1.1 0.00 0.0004436
2021-07-24 20:20:00 77.0 56.6 60.4 77.0 77.0 3.3 6.3 4.4 24.6 7.5 0.00 0.0002449
2021-07-24 20:25:00 77.1 56.7 60.6 77.1 77.1 4.2 5.3 3.8 18.7 18.4 0.00 0.0001004
2021-07-24 20:30:00 77.1 55.2 59.8 77.1 77.1 4.6 6.9 4.6 16.8 1.2 0.00 0.0000080
2021-07-24 20:35:00 77.0 55.7 59.9 77.0 77.0 3.7 6.5 4.5 9.8 353.4 0.00 0.0000000
2021-07-24 20:40:00 77.1 54.6 59.5 77.1 77.1 3.8 5.8 4.3 328.2 10.6 0.00 0.0000000
2021-07-24 20:45:00 76.7 54.6 59.2 76.7 76.7 3.7 6.0 3.6 341.7 353.3 0.00 0.0000000
2021-07-24 20:50:00 76.5 56.0 59.7 76.5 76.5 2.8 6.0 3.0 1.5 353.8 0.00 0.0000000
2021-07-24 20:55:00 76.5 56.0 59.6 76.5 76.5 3.7 4.7 3.6 1.7 345.7 0.00 0.0000000
2021-07-24 21:00:00 76.4 55.8 59.5 76.4 76.4 2.6 4.7 3.3 327.4 332.7 0.00 0.0000000
2021-07-24 21:05:00 76.1 56.6 59.6 76.1 76.1 1.3 4.7 3.2 308.2 328.0 0.00 0.0000000
2021-07-24 21:10:00 76.1 57.8 60.2 76.1 76.1 3.7 4.6 3.1 321.3 316.7 0.00 0.0000000
2021-07-24 21:15:00 75.9 57.2 59.7 75.9 75.9 3.0 5.1 3.7 300.4 304.4 0.00 0.0000000
2021-07-24 21:20:00 75.8 57.0 59.5 75.8 75.8 3.7 5.3 3.3 291.2 297.6 0.00 0.0000000
2021-07-24 21:25:00 75.4 59.7 60.4 75.4 75.4 4.4 5.5 3.8 302.2 286.8 0.00 0.0000000
2021-07-24 21:30:00 75.1 62.1 61.3 75.1 75.1 3.0 4.6 3.5 292.6 297.1 0.00 0.0000000
2021-07-24 21:35:00 75.0 61.7 61.0 75.0 75.0 3.0 4.4 3.0 288.3 283.7 0.00 0.0000000

Data is courtesy of the NM Climate Center. DO NOT USE IN LEGAL PROCEEDINGS.